createdAt,value
2018-03-15T00:00:46.832Z,3.70
2018-03-15T00:03:20.059Z,3.70
2018-03-15T00:05:47.631Z,3.70
2018-03-15T00:08:15.205Z,3.70
2018-03-15T00:10:42.910Z,3.60
2018-03-15T00:13:10.549Z,3.60
2018-03-15T00:15:38.906Z,3.60
2018-03-15T00:18:06.927Z,3.60
2018-03-15T00:20:34.497Z,3.70
2018-03-15T00:23:02.039Z,3.50
2018-03-15T00:25:30.434Z,3.50
2018-03-15T00:45:00.732Z,3.40
2018-03-15T00:47:28.299Z,3.30
2018-03-15T00:49:56.635Z,3.30
2018-03-15T00:52:25.146Z,3.20
2018-03-15T00:54:53.074Z,3.30
2018-03-15T00:57:20.645Z,3.30
2018-03-15T00:59:48.235Z,3.30
2018-03-15T01:02:15.799Z,3.40
2018-03-15T01:27:34.138Z,2.90
2018-03-15T01:30:02.462Z,2.90
2018-03-15T01:32:30.104Z,2.90
2018-03-15T01:34:57.663Z,2.90
2018-03-15T01:37:25.199Z,3.00
2018-03-15T01:39:53.988Z,2.90
2018-03-15T01:42:24.097Z,2.90
2018-03-15T01:44:53.260Z,2.90
2018-03-15T01:47:20.861Z,2.90
2018-03-15T01:49:48.463Z,2.90
2018-03-15T01:52:16.801Z,2.80
2018-03-15T01:54:44.390Z,2.80
2018-03-15T01:57:11.976Z,2.90
2018-03-15T01:59:39.882Z,3.00
2018-03-15T02:02:07.457Z,3.00
2018-03-15T02:04:35.030Z,3.00
2018-03-15T02:07:02.648Z,3.00
2018-03-15T02:09:30.199Z,3.00
2018-03-15T02:11:57.781Z,3.00
2018-03-15T02:14:26.102Z,2.90
2018-03-15T02:16:54.082Z,2.90
2018-03-15T02:19:23.075Z,3.00
2018-03-15T02:21:50.637Z,3.00
2018-03-15T02:24:18.203Z,3.00
2018-03-15T02:26:45.890Z,2.90
2018-03-15T02:29:13.511Z,2.90
2018-03-15T02:31:41.812Z,3.00
2018-03-15T02:34:09.410Z,3.00
2018-03-15T02:36:37.723Z,3.20
2018-03-15T02:39:05.293Z,3.10
2018-03-15T02:41:32.900Z,3.20
2018-03-15T02:44:01.261Z,3.20
2018-03-15T02:46:29.570Z,3.00
2018-03-15T02:48:57.194Z,3.10
2018-03-15T02:51:25.549Z,3.00
2018-03-15T02:53:55.156Z,2.90
2018-03-15T02:56:23.941Z,3.00
2018-03-15T02:58:51.528Z,3.00
2018-03-15T03:01:19.122Z,3.00
2018-03-15T03:03:46.653Z,3.10
2018-03-15T03:06:14.217Z,3.10
2018-03-15T03:08:41.796Z,3.20
2018-03-15T03:11:09.385Z,3.20
2018-03-15T03:13:37.713Z,3.30
2018-03-15T03:16:06.092Z,3.30
2018-03-15T03:18:34.417Z,3.30
2018-03-15T03:21:02.339Z,3.20
2018-03-15T03:23:29.924Z,3.20
2018-03-15T03:25:57.458Z,3.20
2018-03-15T03:28:25.812Z,3.30
2018-03-15T03:30:54.983Z,3.20
2018-03-15T03:33:24.535Z,3.00
2018-03-15T03:35:52.122Z,2.90
2018-03-15T03:38:20.453Z,3.00
2018-03-15T03:40:48.783Z,2.90
2018-03-15T03:43:16.380Z,2.90
2018-03-15T03:45:43.958Z,2.90
2018-03-15T03:48:12.316Z,2.90
2018-03-15T03:50:39.899Z,2.90
2018-03-15T03:53:07.521Z,2.80
2018-03-15T03:55:35.082Z,2.80
2018-03-15T03:58:03.447Z,2.80
2018-03-15T04:00:31.757Z,2.70
2018-03-15T04:02:59.427Z,2.70
2018-03-15T04:05:27.005Z,2.70
2018-03-15T04:07:55.228Z,2.70
2018-03-15T04:10:23.474Z,2.70
2018-03-15T04:12:51.062Z,2.60
2018-03-15T04:15:18.662Z,2.70
2018-03-15T04:17:46.229Z,2.70
2018-03-15T04:20:13.809Z,2.60
2018-03-15T04:22:41.371Z,2.50
2018-03-15T04:25:08.967Z,2.40
2018-03-15T04:27:37.303Z,2.40
2018-03-15T04:30:04.917Z,2.40
2018-03-15T04:32:32.478Z,2.50
2018-03-15T04:35:00.080Z,2.60
2018-03-15T04:37:27.634Z,2.60
2018-03-15T04:39:55.374Z,2.60
2018-03-15T04:42:23.905Z,2.70
2018-03-15T04:44:51.499Z,2.80
2018-03-15T04:47:19.148Z,2.90
2018-03-15T04:49:47.492Z,2.80
2018-03-15T04:52:15.058Z,2.80
2018-03-15T04:54:42.661Z,2.70
2018-03-15T04:57:10.269Z,2.80
2018-03-15T04:59:37.864Z,2.80
2018-03-15T05:02:05.430Z,2.80
2018-03-15T05:04:32.983Z,2.90
2018-03-15T05:07:00.564Z,2.90
2018-03-15T05:09:28.875Z,2.70
2018-03-15T05:11:56.446Z,2.70
2018-03-15T05:14:25.068Z,2.60
2018-03-15T05:16:52.955Z,2.50
2018-03-15T05:19:21.315Z,2.50
2018-03-15T05:21:48.906Z,2.50
2018-03-15T05:24:16.482Z,2.50
2018-03-15T05:26:44.085Z,2.50
2018-03-15T05:29:11.660Z,2.40
2018-03-15T05:31:39.229Z,2.30
2018-03-15T05:34:06.816Z,2.40
2018-03-15T05:36:34.359Z,2.30
2018-03-15T05:39:01.975Z,2.30
2018-03-15T05:41:29.574Z,2.40
2018-03-15T05:43:57.194Z,2.50
2018-03-15T05:46:25.055Z,2.50
2018-03-15T05:48:53.001Z,2.60
2018-03-15T05:51:20.598Z,2.50
2018-03-15T05:53:49.006Z,2.50
2018-03-15T05:56:16.569Z,2.50
2018-03-15T05:58:45.071Z,2.60
2018-03-15T06:01:12.712Z,2.50
2018-03-15T06:03:40.327Z,2.70
2018-03-15T06:06:08.737Z,2.80
2018-03-15T06:08:36.303Z,2.80
2018-03-15T06:11:03.918Z,2.70
2018-03-15T06:13:31.503Z,2.60
2018-03-15T06:15:59.883Z,2.40
2018-03-15T06:18:27.466Z,2.40
2018-03-15T06:20:55.325Z,2.40
2018-03-15T06:23:23.680Z,2.40
2018-03-15T06:25:51.355Z,2.50
2018-03-15T06:28:18.916Z,2.50
2018-03-15T06:30:46.550Z,2.40
2018-03-15T06:33:14.139Z,2.30
2018-03-15T06:35:42.487Z,2.40
2018-03-15T06:38:10.057Z,2.40
2018-03-15T06:40:38.418Z,2.30
2018-03-15T06:43:06.754Z,2.10
2018-03-15T06:45:34.384Z,2.10
2018-03-15T06:48:02.115Z,2.00
2018-03-15T06:50:29.745Z,1.90
2018-03-15T06:52:57.336Z,1.90
2018-03-15T06:55:25.195Z,2.10
2018-03-15T06:57:53.394Z,2.20
2018-03-15T07:00:21.011Z,2.10
2018-03-15T07:02:48.578Z,2.20
2018-03-15T07:05:16.194Z,2.30
2018-03-15T07:07:45.478Z,2.50
2018-03-15T07:10:13.816Z,2.60
2018-03-15T07:12:41.478Z,2.40
2018-03-15T07:15:09.846Z,2.80
2018-03-15T07:17:37.445Z,2.80
2018-03-15T07:20:05.018Z,2.90
2018-03-15T07:22:33.401Z,3.20
2018-03-15T07:25:01.005Z,3.20
2018-03-15T07:27:28.614Z,3.30
2018-03-15T07:29:56.194Z,3.40
2018-03-15T07:32:25.320Z,3.60
2018-03-15T07:34:53.543Z,3.60
2018-03-15T07:37:21.231Z,3.60
2018-03-15T07:39:49.795Z,3.80
2018-03-15T07:42:18.376Z,3.90
2018-03-15T07:44:46.036Z,3.70
2018-03-15T07:47:13.615Z,4.00
2018-03-15T07:49:41.340Z,4.30
2018-03-15T07:52:09.745Z,4.80
2018-03-15T07:54:37.283Z,4.70
2018-03-15T07:57:04.844Z,4.90
2018-03-15T07:59:32.446Z,4.80
2018-03-15T08:02:00.030Z,4.70
2018-03-15T08:04:27.650Z,5.10
2018-03-15T08:06:55.590Z,5.30
2018-03-15T08:09:24.117Z,5.60
2018-03-15T08:11:53.771Z,5.90
2018-03-15T08:14:21.369Z,5.90
2018-03-15T08:16:48.986Z,6.10
2018-03-15T08:19:17.322Z,6.20
2018-03-15T08:21:44.923Z,6.20
2018-03-15T08:24:12.584Z,6.00
2018-03-15T08:26:40.316Z,6.00
2018-03-15T08:29:07.918Z,5.90
2018-03-15T08:31:36.268Z,6.00
2018-03-15T08:34:04.633Z,6.40
2018-03-15T08:36:32.212Z,6.30
2018-03-15T08:38:59.836Z,6.40
2018-03-15T08:41:27.392Z,6.30
2018-03-15T08:43:55.372Z,6.40
2018-03-15T08:46:24.565Z,6.50
2018-03-15T08:48:52.155Z,6.60
2018-03-15T08:51:19.720Z,6.80
2018-03-15T08:53:47.362Z,6.80
2018-03-15T08:56:14.955Z,6.50
2018-03-15T08:58:42.587Z,6.50
2018-03-15T09:01:11.116Z,6.60
2018-03-15T09:03:38.733Z,6.30
2018-03-15T09:06:07.244Z,6.40
2018-03-15T09:08:34.836Z,6.70
2018-03-15T09:11:02.411Z,7.20
2018-03-15T09:13:30.116Z,7.20
2018-03-15T09:15:57.713Z,7.30
2018-03-15T09:18:25.294Z,7.30
2018-03-15T09:20:53.479Z,7.30
2018-03-15T09:23:21.107Z,7.70
2018-03-15T09:25:49.695Z,7.80
2018-03-15T09:28:17.301Z,7.80
2018-03-15T09:30:45.831Z,7.70
2018-03-15T09:33:13.432Z,7.70
2018-03-15T09:35:41.042Z,7.90
2018-03-15T09:38:08.675Z,7.90
2018-03-15T09:40:36.318Z,8.30
2018-03-15T09:43:03.947Z,8.20
2018-03-15T09:45:31.609Z,8.50
2018-03-15T09:48:00.254Z,8.40
2018-03-15T09:50:29.136Z,8.30
2018-03-15T09:52:56.755Z,8.40
2018-03-15T09:55:26.408Z,8.50
2018-03-15T09:57:55.182Z,8.80
2018-03-15T10:00:23.751Z,8.70
2018-03-15T10:02:51.342Z,8.50
2018-03-15T10:05:18.965Z,8.60
2018-03-15T10:07:47.542Z,8.60
2018-03-15T10:10:15.120Z,8.60
2018-03-15T10:12:42.783Z,8.50
2018-03-15T10:15:10.405Z,8.50
2018-03-15T10:17:38.847Z,8.80
2018-03-15T10:20:07.199Z,8.90
2018-03-15T10:22:35.881Z,8.90
2018-03-15T10:25:13.608Z,9.10
2018-03-15T10:27:31.249Z,8.70
2018-03-15T10:29:59.562Z,9.20
2018-03-15T10:32:27.191Z,9.10
2018-03-15T10:35:01.082Z,8.90
2018-03-15T10:37:29.405Z,9.60
2018-03-15T10:39:57.192Z,9.60
2018-03-15T10:42:25.171Z,9.80
2018-03-15T10:44:55.122Z,10.10
2018-03-15T10:47:24.125Z,10.00
2018-03-15T10:49:51.734Z,10.00
2018-03-15T10:52:20.154Z,10.70
2018-03-15T10:54:47.859Z,10.70
2018-03-15T10:57:15.469Z,10.70
2018-03-15T10:59:43.227Z,11.00
2018-03-15T11:02:17.107Z,12.60
2018-03-15T11:04:50.249Z,12.60
2018-03-15T11:07:23.981Z,13.30
2018-03-15T11:09:51.600Z,13.80
2018-03-15T11:12:19.173Z,13.50
2018-03-15T11:14:46.780Z,13.60
2018-03-15T11:17:14.371Z,14.10
2018-03-15T11:19:42.928Z,13.70
2018-03-15T11:22:10.531Z,14.40
2018-03-15T11:24:38.136Z,14.70
2018-03-15T11:27:05.737Z,14.70
2018-03-15T11:29:34.075Z,14.50
2018-03-15T11:32:01.708Z,14.40
2018-03-15T11:34:29.406Z,13.80
2018-03-15T11:36:58.082Z,13.20
2018-03-15T11:39:25.681Z,12.10
2018-03-15T11:41:54.260Z,11.80
2018-03-15T11:44:24.608Z,11.40
2018-03-15T11:46:52.326Z,10.90
2018-03-15T11:49:22.266Z,10.90
2018-03-15T11:51:49.949Z,10.90
2018-03-15T11:54:18.332Z,10.90
2018-03-15T11:56:46.865Z,11.00
2018-03-15T11:59:14.417Z,10.80
2018-03-15T12:01:42.065Z,10.90
2018-03-15T12:04:09.631Z,10.80
2018-03-15T12:06:37.261Z,10.70
2018-03-15T12:09:04.956Z,10.70
2018-03-15T12:11:32.608Z,10.70
2018-03-15T12:14:00.329Z,10.70
2018-03-15T12:16:28.141Z,10.80
2018-03-15T12:18:55.723Z,10.80
2018-03-15T12:21:23.951Z,10.80
2018-03-15T12:23:51.588Z,11.00
2018-03-15T12:26:19.180Z,10.90
2018-03-15T12:28:46.846Z,10.90
2018-03-15T12:31:14.548Z,11.10
2018-03-15T12:33:42.077Z,11.40
2018-03-15T12:36:09.728Z,11.40
2018-03-15T12:38:38.230Z,11.50
2018-03-15T12:41:05.877Z,11.60
2018-03-15T12:43:33.531Z,11.50
2018-03-15T12:46:01.150Z,11.60
2018-03-15T12:48:28.729Z,11.60
2018-03-15T12:50:56.332Z,11.50
2018-03-15T12:53:24.579Z,11.60
2018-03-15T12:55:52.184Z,11.70
2018-03-15T12:58:20.508Z,11.60
2018-03-15T13:00:48.123Z,11.60
2018-03-15T13:03:15.736Z,11.40
2018-03-15T13:05:43.381Z,11.50
2018-03-15T13:08:11.042Z,11.40
2018-03-15T13:10:38.646Z,11.50
2018-03-15T13:13:06.988Z,11.50
2018-03-15T13:15:34.649Z,11.50
2018-03-15T13:18:02.232Z,11.60
2018-03-15T13:20:29.892Z,11.70
2018-03-15T13:22:57.472Z,11.70
2018-03-15T13:25:25.093Z,11.80
2018-03-15T13:27:52.979Z,11.80
2018-03-15T13:30:20.612Z,11.70
2018-03-15T13:32:48.183Z,11.70
2018-03-15T13:35:15.918Z,11.70
2018-03-15T13:37:44.505Z,11.60
2018-03-15T13:40:12.073Z,11.60
2018-03-15T13:42:40.710Z,11.60
2018-03-15T13:45:08.349Z,11.70
2018-03-15T13:47:36.023Z,11.80
2018-03-15T13:50:03.760Z,12.00
2018-03-15T13:52:32.333Z,12.10
2018-03-15T13:55:00.264Z,12.10
2018-03-15T13:57:27.850Z,12.20
2018-03-15T13:59:56.237Z,12.20
2018-03-15T14:02:24.846Z,12.20
2018-03-15T14:04:52.938Z,12.30
2018-03-15T14:07:20.594Z,12.30
2018-03-15T14:09:48.155Z,12.30
2018-03-15T14:12:16.699Z,12.40
2018-03-15T14:14:44.276Z,12.30
2018-03-15T14:17:12.880Z,12.10
2018-03-15T14:19:41.231Z,11.90
2018-03-15T14:22:09.626Z,11.70
2018-03-15T14:24:37.200Z,11.70
2018-03-15T14:27:04.786Z,11.70
2018-03-15T14:29:33.413Z,11.80
2018-03-15T14:32:00.963Z,11.60
2018-03-15T14:34:29.564Z,11.60
2018-03-15T14:36:57.126Z,11.70
2018-03-15T14:39:25.222Z,11.70
2018-03-15T14:41:52.942Z,11.60
2018-03-15T14:44:20.551Z,11.60
2018-03-15T14:46:48.097Z,11.50
2018-03-15T14:49:15.698Z,11.40
2018-03-15T14:51:46.034Z,11.30
2018-03-15T14:54:13.628Z,11.30
2018-03-15T14:56:41.186Z,11.40
2018-03-15T14:59:08.853Z,11.40
2018-03-15T15:01:37.202Z,11.30
2018-03-15T15:04:04.839Z,11.30
2018-03-15T15:06:32.436Z,11.30
2018-03-15T15:09:00.042Z,11.30
2018-03-15T15:11:29.380Z,11.30
2018-03-15T15:13:57.044Z,11.30
2018-03-15T15:16:25.531Z,11.10
2018-03-15T15:18:53.795Z,11.10
2018-03-15T15:21:21.395Z,11.20
2018-03-15T15:23:49.856Z,11.00
2018-03-15T15:26:18.257Z,11.00
2018-03-15T15:28:48.020Z,11.00
2018-03-15T15:31:16.365Z,10.80
2018-03-15T15:33:43.957Z,10.80
2018-03-15T15:36:11.570Z,10.80
2018-03-15T15:38:39.178Z,10.90
2018-03-15T15:41:06.755Z,10.80
2018-03-15T15:43:34.359Z,11.00
2018-03-15T15:46:01.915Z,10.80
2018-03-15T15:48:29.502Z,10.80
2018-03-15T15:50:57.066Z,10.80
2018-03-15T15:53:25.226Z,10.70
2018-03-15T15:55:54.381Z,10.60
2018-03-15T15:58:21.980Z,10.60
2018-03-15T16:00:49.587Z,10.70
2018-03-15T16:03:17.968Z,10.70
2018-03-15T16:05:45.735Z,10.60
2018-03-15T16:08:13.312Z,10.60
2018-03-15T16:10:40.940Z,10.70
2018-03-15T16:13:09.668Z,10.70
2018-03-15T16:15:37.324Z,10.60
2018-03-15T16:18:05.193Z,10.70
2018-03-15T16:20:32.778Z,10.60
2018-03-15T16:23:02.129Z,10.50
2018-03-15T16:25:29.715Z,10.40
2018-03-15T16:28:00.072Z,10.50
2018-03-15T16:30:27.651Z,10.50
2018-03-15T16:32:56.046Z,10.40
2018-03-15T16:35:24.074Z,10.40
2018-03-15T16:37:51.696Z,10.50
2018-03-15T16:40:20.033Z,10.60
2018-03-15T16:42:47.674Z,10.60
2018-03-15T16:45:15.289Z,10.60
2018-03-15T16:47:43.914Z,10.60
2018-03-15T16:50:12.262Z,10.60
2018-03-15T16:52:40.627Z,10.60
2018-03-15T16:55:08.979Z,10.60
2018-03-15T16:57:36.987Z,10.60
2018-03-15T17:00:04.701Z,10.50
2018-03-15T17:02:32.181Z,10.60
2018-03-15T17:04:59.724Z,10.50
2018-03-15T17:07:27.297Z,10.50
2018-03-15T17:09:56.668Z,10.40
2018-03-15T17:12:25.110Z,10.30
2018-03-15T17:14:53.066Z,10.30
2018-03-15T17:17:21.424Z,10.40
2018-03-15T17:19:49.076Z,10.30
2018-03-15T17:22:16.665Z,10.20
2018-03-15T17:24:44.386Z,10.10
2018-03-15T17:27:11.978Z,10.20
2018-03-15T17:29:40.597Z,10.10
2018-03-15T17:32:08.174Z,10.00
2018-03-15T17:34:35.812Z,10.10
2018-03-15T17:37:05.332Z,10.10
2018-03-15T17:39:32.989Z,10.00
2018-03-15T17:42:01.480Z,9.90
2018-03-15T17:44:29.098Z,10.00
2018-03-15T17:46:57.445Z,10.00
2018-03-15T17:49:27.238Z,9.90
2018-03-15T17:51:56.121Z,9.90
2018-03-15T17:54:23.867Z,9.90
2018-03-15T17:56:54.183Z,9.90
2018-03-15T17:59:23.214Z,9.80
2018-03-15T18:01:50.908Z,9.80
2018-03-15T18:04:18.496Z,9.70
2018-03-15T18:06:46.083Z,9.60
2018-03-15T18:09:13.696Z,9.60
2018-03-15T18:11:42.024Z,9.60
2018-03-15T18:14:09.698Z,9.60
2018-03-15T18:16:37.413Z,9.70
2018-03-15T18:19:05.024Z,9.70
2018-03-15T18:21:32.653Z,9.60
2018-03-15T18:24:00.295Z,9.60
2018-03-15T18:26:27.871Z,9.70
2018-03-15T18:28:55.521Z,9.50
2018-03-15T18:31:23.995Z,9.60
2018-03-15T18:33:55.546Z,9.70
2018-03-15T18:36:23.677Z,9.80
2018-03-15T18:38:51.296Z,9.70
2018-03-15T18:41:19.835Z,9.70
2018-03-15T18:43:48.510Z,9.70
2018-03-15T18:46:16.219Z,9.70
2018-03-15T18:48:44.897Z,9.70
2018-03-15T18:51:13.432Z,9.60
2018-03-15T18:53:41.037Z,9.60
2018-03-15T18:56:08.638Z,9.70
2018-03-15T18:58:37.151Z,9.60
2018-03-15T19:01:04.787Z,9.60
2018-03-15T19:03:33.134Z,9.60
2018-03-15T19:06:01.500Z,9.60
2018-03-15T19:08:29.918Z,9.50
2018-03-15T19:10:58.540Z,9.50
2018-03-15T19:13:27.230Z,9.50
2018-03-15T19:15:55.444Z,9.50
2018-03-15T19:18:25.271Z,9.50
2018-03-15T19:20:53.536Z,9.50
2018-03-15T19:23:22.090Z,9.50
2018-03-15T19:25:49.678Z,9.40
2018-03-15T19:28:17.356Z,9.50
2018-03-15T19:30:44.966Z,9.50
2018-03-15T19:33:13.546Z,9.50
2018-03-15T19:35:41.159Z,9.50
2018-03-15T19:38:08.775Z,9.60
2018-03-15T19:40:40.217Z,9.60
2018-03-15T19:43:08.603Z,9.50
2018-03-15T19:45:36.225Z,9.50
2018-03-15T19:48:03.880Z,9.50
2018-03-15T19:50:31.486Z,9.60
2018-03-15T19:52:59.830Z,9.80
2018-03-15T19:55:27.855Z,9.80
2018-03-15T19:57:56.349Z,10.00
2018-03-15T20:00:25.755Z,10.00
2018-03-15T20:02:54.098Z,10.00
2018-03-15T20:05:21.634Z,10.10
2018-03-15T20:07:49.281Z,10.00
2018-03-15T20:10:17.155Z,10.10
2018-03-15T20:12:44.844Z,10.00
2018-03-15T20:15:12.405Z,10.00
2018-03-15T20:17:40.758Z,10.00
2018-03-15T20:20:09.630Z,9.90
2018-03-15T20:22:43.943Z,9.80
2018-03-15T20:25:12.373Z,9.80
2018-03-15T20:27:45.755Z,9.80
2018-03-15T20:30:14.339Z,9.70
2018-03-15T20:32:49.779Z,9.70
2018-03-15T20:35:19.491Z,9.50
2018-03-15T20:37:47.208Z,9.60
2018-03-15T20:40:21.213Z,9.70
2018-03-15T20:42:49.669Z,9.70
2018-03-15T20:45:24.165Z,9.70
2018-03-15T20:50:51.110Z,9.70
2018-03-15T20:53:18.721Z,9.80
2018-03-15T20:55:47.294Z,9.90
2018-03-15T20:58:15.239Z,9.90
2018-03-15T21:00:43.556Z,10.00
2018-03-15T21:03:11.181Z,9.90
2018-03-15T21:05:39.544Z,10.00
2018-03-15T21:08:07.970Z,10.10
2018-03-15T21:10:36.305Z,10.00
2018-03-15T21:13:04.718Z,10.00
2018-03-15T21:15:32.257Z,10.00
2018-03-15T21:17:59.822Z,10.00
2018-03-15T21:20:28.173Z,10.00
2018-03-15T21:22:56.619Z,10.00
2018-03-15T21:25:25.204Z,10.00
2018-03-15T21:27:53.686Z,10.10
2018-03-15T21:30:21.256Z,10.10
2018-03-15T21:32:48.875Z,10.10
2018-03-15T21:35:16.645Z,10.10
2018-03-15T21:37:44.261Z,10.00
2018-03-15T21:40:11.839Z,10.00
2018-03-15T21:42:39.759Z,9.90
2018-03-15T21:45:07.347Z,9.80
2018-03-15T21:47:35.877Z,10.00
2018-03-15T21:50:03.653Z,10.00
2018-03-15T21:52:31.209Z,9.80
2018-03-15T21:54:58.959Z,10.00
2018-03-15T21:57:27.432Z,10.00
2018-03-15T21:59:56.068Z,10.00
2018-03-15T22:02:24.043Z,10.00
2018-03-15T22:04:53.255Z,10.00
2018-03-15T22:07:21.796Z,10.00
2018-03-15T22:09:49.459Z,10.10
2018-03-15T22:12:17.518Z,10.00
2018-03-15T22:14:45.214Z,10.10
2018-03-15T22:17:12.851Z,10.00
2018-03-15T22:19:40.498Z,10.10
2018-03-15T22:22:08.206Z,10.10
2018-03-15T22:24:35.824Z,10.10
2018-03-15T22:27:03.643Z,10.10
2018-03-15T22:29:32.036Z,10.20
2018-03-15T22:31:59.712Z,10.00
2018-03-15T22:34:27.776Z,10.20
2018-03-15T22:36:55.469Z,10.20
2018-03-15T22:39:23.929Z,10.20
2018-03-15T22:41:51.594Z,10.20
2018-03-15T22:44:19.190Z,10.20
2018-03-15T22:46:46.845Z,10.20
2018-03-15T22:49:15.292Z,10.20
2018-03-15T22:51:43.740Z,10.20
2018-03-15T22:54:11.356Z,10.20
2018-03-15T22:56:38.983Z,10.30
2018-03-15T22:59:07.614Z,10.30
2018-03-15T23:01:35.338Z,10.30
2018-03-15T23:04:05.032Z,10.20
2018-03-15T23:06:32.743Z,10.20
2018-03-15T23:09:00.814Z,10.20
2018-03-15T23:11:29.507Z,10.20
2018-03-15T23:13:57.116Z,10.20
2018-03-15T23:16:25.416Z,10.20
2018-03-15T23:18:54.108Z,10.10
2018-03-15T23:21:21.777Z,10.10
2018-03-15T23:23:49.812Z,10.10
2018-03-15T23:26:17.401Z,10.00
2018-03-15T23:28:45.006Z,9.80
2018-03-15T23:31:13.966Z,10.00
2018-03-15T23:33:41.575Z,9.90
2018-03-15T23:36:09.231Z,9.90
2018-03-15T23:38:36.903Z,9.90
2018-03-15T23:41:04.500Z,9.80
2018-03-15T23:43:32.874Z,9.80
2018-03-15T23:46:00.530Z,9.80
2018-03-15T23:48:28.163Z,9.80
2018-03-15T23:50:55.756Z,9.70
2018-03-15T23:53:26.291Z,9.80
2018-03-15T23:55:54.398Z,9.80
2018-03-15T23:58:22.005Z,9.70
